Time;durP1;ratioP1;P1;durP2;ratioP2;P2;SDS_P1;SDS_P2;PMS_P1;PMS_P2;Temp;Humidity;BMP_temperature;BMP_pressure;BME280_temperature;BME280_humidity;BME280_pressure;Samples;Min_cycle;Max_cycle;Signal;HPM_P1;HPM_P2
2022/05/14 00:00:03;;;;;;;342.02;180.23;;;;;;;19.62;61.79;99401.16;335729;29;1548;-76
2022/05/14 00:00:15;;;;;;;343.67;180.23;;;;;;;19.62;62.30;99395.84;336884;29;1395;-75
2022/05/14 00:00:27;;;;;;;343.80;182.40;;;;;;;19.60;62.05;99401.28;339589;29;1401;-75
2022/05/14 00:00:37;;;;;;;342.85;180.57;;;;;;;19.57;61.98;99399.72;340741;29;1611;-75
2022/05/14 00:00:48;;;;;;;341.33;182.53;;;;;;;19.55;62.15;99399.00;340597;29;1568;-75
2022/05/14 00:00:59;;;;;;;343.70;184.48;;;;;;;19.56;62.09;99397.19;341669;28;1080;-75
2022/05/14 00:01:09;;;;;;;345.80;185.75;;;;;;;19.56;62.15;99397.19;339163;29;1414;-75
2022/05/14 00:01:20;;;;;;;348.25;185.25;;;;;;;19.56;62.19;99400.69;336994;29;771;-75
2022/05/14 00:01:31;;;;;;;347.20;181.98;;;;;;;19.54;62.24;99392.00;340897;29;817;-75
2022/05/14 00:01:42;;;;;;;346.10;177.67;;;;;;;19.55;62.23;99396.34;338210;29;1207;-75
2022/05/14 00:01:52;;;;;;;343.92;176.68;;;;;;;19.57;62.75;99399.72;336468;29;5222;-75
2022/05/14 00:02:03;;;;;;;344.70;179.13;;;;;;;19.55;62.65;99396.34;335387;29;3456;-75
2022/05/14 00:02:13;;;;;;;342.47;180.33;;;;;;;19.51;63.72;99396.72;338924;29;1529;-75
2022/05/14 00:02:24;;;;;;;347.02;183.55;;;;;;;19.49;63.44;99394.19;337928;29;1821;-75
2022/05/14 00:02:34;;;;;;;346.83;184.43;;;;;;;19.49;63.76;99396.84;334088;29;3690;-75
2022/05/14 00:02:45;;;;;;;347.15;182.73;;;;;;;19.46;63.79;99390.94;338064;29;1500;-75
2022/05/14 00:02:55;;;;;;;344.63;180.77;;;;;;;19.45;63.68;99399.88;338321;29;1682;-75
2022/05/14 00:03:06;;;;;;;344.52;178.90;;;;;;;19.45;63.84;99395.41;335538;29;1571;-75
2022/05/14 00:03:17;;;;;;;341.97;180.03;;;;;;;19.44;64.31;99398.19;336941;29;1449;-75
2022/05/14 00:03:29;;;;;;;340.67;179.60;;;;;;;19.44;64.68;99395.53;339639;29;1445;-75
2022/05/14 00:03:40;;;;;;;341.02;179.90;;;;;;;19.44;64.53;99401.69;340729;29;1432;-75
2022/05/14 00:03:50;;;;;;;343.85;181.20;;;;;;;19.39;64.98;99395.91;338659;29;1639;-75
2022/05/14 00:04:01;;;;;;;344.90;181.67;;;;;;;19.41;64.93;99388.66;337025;29;1718;-75
2022/05/14 00:04:11;;;;;;;341.52;176.73;;;;;;;19.43;65.02;99394.69;336899;29;1373;-75
2022/05/14 00:04:21;;;;;;;341.20;177.97;;;;;;;19.46;64.90;99397.09;337076;29;799;-75
2022/05/14 00:04:32;;;;;;;342.77;180.60;;;;;;;19.45;65.03;99394.56;334518;29;819;-75
2022/05/14 00:04:42;;;;;;;346.23;182.02;;;;;;;19.45;65.05;99395.41;334394;29;1184;-75
2022/05/14 00:04:53;;;;;;;345.33;182.07;;;;;;;19.46;64.85;99396.25;336543;29;863;-75
2022/05/14 00:05:05;;;;;;;343.60;177.80;;;;;;;19.48;65.16;99395.16;339578;29;1213;-75
2022/05/14 00:05:17;;;;;;;338.65;172.10;;;;;;;19.45;65.35;99390.09;339125;29;1254;-75
2022/05/14 00:05:28;;;;;;;338.67;170.13;;;;;;;19.46;65.27;99397.09;337044;29;937;-75
2022/05/14 00:05:39;;;;;;;341.67;175.27;;;;;;;19.45;65.49;99395.41;337492;29;1683;-75
2022/05/14 00:05:49;;;;;;;344.87;179.33;;;;;;;19.43;65.51;99392.03;337922;29;1609;-75
2022/05/14 00:06:02;;;;;;;344.38;179.63;;;;;;;19.43;65.51;99397.34;335612;29;1273;-75
2022/05/14 00:06:14;;;;;;;343.88;178.57;;;;;;;19.41;65.50;99393.97;338322;29;913;-75
2022/05/14 00:06:26;;;;;;;343.58;177.82;;;;;;;19.38;65.50;99394.22;338276;29;875;-75
2022/05/14 00:06:38;;;;;;;343.35;178.13;;;;;;;19.39;65.75;99395.06;338259;29;1393;-75
2022/05/14 00:06:49;;;;;;;345.80;179.77;;;;;;;19.41;65.54;99393.97;335758;29;823;-75
2022/05/14 00:07:00;;;;;;;347.88;182.57;;;;;;;19.42;65.61;99400.97;337306;29;1562;-75
2022/05/14 00:07:10;;;;;;;349.40;182.50;;;;;;;19.41;65.63;99399.28;337226;29;1260;-75
2022/05/14 00:07:22;;;;;;;344.85;179.73;;;;;;;19.40;65.63;99394.94;337170;29;1656;-75
2022/05/14 00:07:32;;;;;;;346.30;180.02;;;;;;;19.40;65.80;99394.94;339159;29;1564;-75
2022/05/14 00:07:42;;;;;;;345.50;179.73;;;;;;;19.40;65.62;99388.78;337914;29;1555;-75
2022/05/14 00:07:53;;;;;;;347.73;179.17;;;;;;;19.44;65.58;99392.88;336813;29;1322;-75
2022/05/14 00:08:03;;;;;;;344.77;176.80;;;;;;;19.41;65.53;99399.28;336842;29;1198;-75
2022/05/14 00:08:15;;;;;;;344.95;176.90;;;;;;;19.43;65.74;99394.69;334346;29;1396;-76
2022/05/14 00:08:26;;;;;;;346.08;177.63;;;;;;;19.43;65.67;99397.34;338226;29;1518;-76
2022/05/14 00:08:36;;;;;;;346.50;177.50;;;;;;;19.43;65.59;99397.34;338153;29;1156;-76
2022/05/14 00:08:47;;;;;;;347.60;176.90;;;;;;;19.43;65.47;99394.69;336617;29;1780;-76
2022/05/14 00:09:05;;;;;;;344.25;172.77;;;;;;;19.42;65.94;99392.16;337624;29;1695;-76
2022/05/14 00:09:15;;;;;;;342.18;174.02;;;;;;;19.42;65.72;99400.97;339595;29;811;-76
2022/05/14 00:09:25;;;;;;;342.43;176.60;;;;;;;19.43;65.96;99401.81;340955;29;859;-76
2022/05/14 00:09:36;;;;;;;343.48;177.05;;;;;;;19.40;65.80;99394.09;340981;29;883;-76
2022/05/14 00:09:47;;;;;;;344.33;178.83;;;;;;;19.42;65.71;99393.00;340890;29;814;-76
2022/05/14 00:09:57;;;;;;;344.63;180.93;;;;;;;19.37;65.66;99387.22;337286;29;1762;-76
2022/05/14 00:10:08;;;;;;;343.27;182.73;;;;;;;19.41;65.75;99388.66;334927;29;1717;-76
2022/05/14 00:10:22;;;;;;;343.20;181.82;;;;;;;19.41;65.53;99393.13;338381;29;834;-76
2022/05/14 00:10:33;;;;;;;342.80;180.75;;;;;;;19.42;65.53;99390.34;338362;29;1012;-74
2022/05/14 00:13:08;;;;;;;346.75;181.93;;;;;;;19.46;65.42;99397.09;338024;29;867;-74
2022/05/14 00:13:18;;;;;;;345.77;182.05;;;;;;;19.46;65.33;99391.78;339216;29;1322;-74
2022/05/14 00:13:29;;;;;;;346.30;181.50;;;;;;;19.45;65.21;99391.91;337699;29;1681;-74
2022/05/14 00:13:39;;;;;;;345.10;181.03;;;;;;;19.45;65.27;99389.25;335649;29;1507;-74
2022/05/14 00:13:50;;;;;;;345.47;181.63;;;;;;;19.44;65.38;99393.72;335432;29;740;-74
2022/05/14 00:14:03;;;;;;;343.65;181.90;;;;;;;19.43;65.09;99397.34;334499;29;882;-74
2022/05/14 00:14:14;;;;;;;340.85;179.57;;;;;;;19.47;65.17;99397.94;338501;29;870;-75
2022/05/14 00:14:24;;;;;;;340.30;177.90;;;;;;;19.49;64.95;99394.19;339280;29;1214;-75
2022/05/14 00:14:34;;;;;;;341.13;178.83;;;;;;;19.45;64.98;99392.75;340382;29;1682;-75
2022/05/14 00:14:45;;;;;;;340.67;179.57;;;;;;;19.46;64.93;99397.09;335546;29;1470;-75
2022/05/14 00:14:55;;;;;;;341.00;179.68;;;;;;;19.46;64.92;99397.09;335690;29;1207;-75
2022/05/14 00:15:06;;;;;;;343.53;180.50;;;;;;;19.48;64.86;99400.47;337386;29;1669;-75
2022/05/14 00:15:16;;;;;;;345.38;181.00;;;;;;;19.48;64.55;99395.16;336864;29;1271;-74
2022/05/14 00:15:27;;;;;;;344.20;176.87;;;;;;;19.47;64.87;99388.16;335872;29;1714;-74
2022/05/14 00:15:39;;;;;;;342.02;172.10;;;;;;;19.49;64.62;99399.50;338152;29;1629;-75
2022/05/14 00:15:50;;;;;;;341.42;172.45;;;;;;;19.46;64.88;99391.78;340961;29;980;-75
2022/05/14 00:16:00;;;;;;;343.77;176.20;;;;;;;19.45;65.09;99386.59;338237;29;1344;-75
2022/05/14 00:16:13;;;;;;;346.77;180.52;;;;;;;19.46;65.22;99397.09;334464;29;749;-75
2022/05/14 00:16:24;;;;;;;348.35;182.07;;;;;;;19.47;65.17;99388.16;339689;29;929;-75
2022/05/14 00:16:35;;;;;;;347.33;182.82;;;;;;;19.46;65.23;99391.78;337554;29;1693;-74
2022/05/14 00:16:45;;;;;;;346.50;181.18;;;;;;;19.47;65.51;99396.13;336598;29;1427;-74
2022/05/14 00:16:55;;;;;;;347.17;179.35;;;;;;;19.49;65.46;99393.34;335423;29;1647;-74
2022/05/14 00:17:06;;;;;;;347.13;178.43;;;;;;;19.49;65.46;99396.84;335015;29;838;-74
2022/05/14 00:17:16;;;;;;;344.30;177.03;;;;;;;19.49;65.84;99388.88;338148;29;1980;-75
2022/05/14 00:17:27;;;;;;;343.90;178.23;;;;;;;19.48;65.91;99395.16;338170;29;1366;-74
2022/05/14 00:17:38;;;;;;;342.30;177.75;;;;;;;19.45;66.05;99399.88;337359;29;1460;-75
2022/05/14 00:17:48;;;;;;;345.40;181.40;;;;;;;19.45;66.16;99390.09;335533;29;1377;-75
2022/05/14 00:17:59;;;;;;;344.00;178.67;;;;;;;19.45;66.29;99387.44;338090;29;1766;-75
2022/05/14 00:18:10;;;;;;;342.60;178.55;;;;;;;19.45;66.27;99391.91;340850;29;1467;-75
2022/05/14 00:18:21;;;;;;;342.50;178.63;;;;;;;19.44;66.25;99388.41;337044;29;812;-76
2022/05/14 00:18:32;;;;;;;343.52;177.25;;;;;;;19.46;66.33;99391.78;337114;29;908;-76
2022/05/14 00:18:43;;;;;;;343.77;176.77;;;;;;;19.44;66.23;99380.44;336377;29;1041;-77
2022/05/14 00:18:53;;;;;;;342.63;175.60;;;;;;;19.42;66.50;99395.66;337470;29;1749;-76
2022/05/14 00:19:05;;;;;;;343.97;179.37;;;;;;;19.41;66.35;99393.97;335565;29;1698;-76
2022/05/14 00:19:15;;;;;;;346.38;182.10;;;;;;;19.42;66.51;99390.34;338301;29;985;-76
2022/05/14 00:19:26;;;;;;;345.73;179.03;;;;;;;19.41;66.53;99388.66;335923;29;1041;-76
2022/05/14 00:19:36;;;;;;;343.27;178.90;;;;;;;19.42;66.42;99389.50;335641;29;1434;-76
2022/05/14 00:19:47;;;;;;;342.20;177.90;;;;;;;19.41;66.52;99391.31;338336;29;1653;-76
2022/05/14 00:19:57;;;;;;;342.83;180.32;;;;;;;19.40;66.21;99392.28;338212;29;1795;-76
2022/05/14 00:20:10;;;;;;;343.63;179.83;;;;;;;19.37;66.37;99381.91;339574;29;893;-75
2022/05/14 00:20:23;;;;;;;343.17;181.82;;;;;;;19.37;66.30;99399.66;335959;29;6717;-75
2022/05/14 00:20:35;;;;;;;342.30;180.10;;;;;;;19.32;66.52;99394.69;338093;29;1894;-76
2022/05/14 00:20:45;;;;;;;346.75;179.25;;;;;;;19.32;66.49;99389.41;337746;29;1688;-76
2022/05/14 00:20:56;;;;;;;348.20;179.10;;;;;;;19.31;66.50;99393.00;335388;29;3794;-76
2022/05/14 00:21:06;;;;;;;347.80;180.67;;;;;;;19.31;66.35;99385.06;337886;29;1179;-75
2022/05/14 00:21:17;;;;;;;347.33;182.07;;;;;;;19.34;66.22;99394.59;340753;29;1199;-76
2022/05/14 00:21:27;;;;;;;345.67;182.20;;;;;;;19.32;66.23;99389.41;337670;29;1904;-76
2022/05/14 00:21:38;;;;;;;342.83;178.60;;;;;;;19.31;66.08;99393.00;338216;29;840;-76
2022/05/14 00:21:49;;;;;;;341.85;177.43;;;;;;;19.29;66.12;99389.63;337412;29;1562;-74
2022/05/14 00:21:59;;;;;;;343.07;175.50;;;;;;;19.28;66.16;99387.94;335808;29;1414;-76
2022/05/14 00:22:10;;;;;;;343.42;176.40;;;;;;;19.27;65.77;99391.56;338405;29;1189;-76
2022/05/14 00:22:20;;;;;;;342.97;176.13;;;;;;;19.20;66.03;99396.53;338822;29;1651;-75
2022/05/14 00:22:30;;;;;;;346.33;177.02;;;;;;;19.19;66.18;99388.69;339158;29;1549;-75
2022/05/14 00:22:41;;;;;;;348.70;176.37;;;;;;;19.17;65.89;99390.63;339191;29;1543;-76
2022/05/14 00:22:52;;;;;;;349.23;176.63;;;;;;;19.20;65.87;99390.38;336755;29;1114;-75
2022/05/14 00:23:03;;;;;;;347.63;176.73;;;;;;;19.20;65.82;99390.38;335704;29;842;-75
2022/05/14 00:23:15;;;;;;;345.92;177.20;;;;;;;19.20;65.77;99398.34;337921;29;1789;-75
2022/05/14 00:23:26;;;;;;;343.38;177.32;;;;;;;19.18;65.80;99392.31;338137;29;1301;-76
2022/05/14 00:23:37;;;;;;;342.95;178.93;;;;;;;19.17;65.51;99395.91;338108;29;1702;-76
2022/05/14 00:23:47;;;;;;;343.15;178.40;;;;;;;19.16;65.27;99388.94;338719;29;1736;-76
2022/05/14 00:23:58;;;;;;;343.47;177.30;;;;;;;19.14;65.68;99390.84;339524;29;1337;-76
2022/05/14 00:24:09;;;;;;;344.00;176.90;;;;;;;19.16;65.59;99388.94;338271;29;882;-76
2022/05/14 00:24:19;;;;;;;347.95;179.27;;;;;;;19.17;65.52;99390.63;336948;29;1300;-75
2022/05/14 00:24:29;;;;;;;349.27;179.17;;;;;;;19.15;65.46;99381.94;337012;29;822;-76
2022/05/14 00:24:40;;;;;;;348.10;178.73;;;;;;;19.16;65.36;99394.25;338265;29;1391;-76
2022/05/14 00:24:50;;;;;;;344.87;177.40;;;;;;;19.14;65.47;99388.22;336505;29;1630;-76
2022/05/14 00:25:01;;;;;;;343.13;179.47;;;;;;;19.12;65.36;99387.47;337563;29;1594;-76
2022/05/14 00:25:11;;;;;;;343.25;179.38;;;;;;;19.08;65.39;99391.34;337130;29;1747;-76
2022/05/14 00:25:21;;;;;;;343.07;178.80;;;;;;;19.09;65.55;99385.06;336772;29;1137;-76
2022/05/14 00:25:32;;;;;;;340.40;173.63;;;;;;;19.07;65.62;99384.34;335663;29;1439;-76
2022/05/14 00:25:43;;;;;;;338.75;170.82;;;;;;;19.09;65.46;99387.72;338212;29;1215;-76
2022/05/14 00:25:53;;;;;;;337.30;168.57;;;;;;;19.11;65.28;99383.16;337030;29;926;-76
2022/05/14 00:26:04;;;;;;;340.83;172.73;;;;;;;19.12;65.05;99392.78;336996;29;839;-76
2022/05/14 00:26:14;;;;;;;344.23;176.83;;;;;;;19.10;65.37;99386.75;333301;29;1890;-75
2022/05/14 00:26:26;;;;;;;348.70;181.65;;;;;;;19.08;65.40;99391.34;335692;29;1338;-75
2022/05/14 00:26:37;;;;;;;349.42;183.65;;;;;;;19.05;65.17;99392.47;339126;29;1659;-75
2022/05/14 00:26:47;;;;;;;344.95;181.40;;;;;;;19.06;65.20;99393.31;299819;29;1119414;-75
2022/05/14 00:26:58;;;;;;;342.33;178.63;;;;;;;19.06;64.92;99385.34;337379;29;1204;-75
2022/05/14 00:27:08;;;;;;;339.77;175.90;;;;;;;19.09;65.24;99387.72;339584;29;1866;-77
2022/05/14 00:27:18;;;;;;;342.05;175.05;;;;;;;19.07;65.05;99387.00;339700;29;906;-75
2022/05/14 00:27:29;;;;;;;342.70;173.77;;;;;;;19.06;65.13;99383.50;338310;29;1229;-75
2022/05/14 00:27:41;;;;;;;344.40;174.33;;;;;;;19.07;65.07;99385.19;334193;29;1403;-75
2022/05/14 00:27:52;;;;;;;342.55;172.93;;;;;;;19.10;65.05;99384.94;336829;29;1064;-77
2022/05/14 00:28:02;;;;;;;342.03;173.37;;;;;;;19.10;65.01;99389.41;339520;29;1278;-77
2022/05/14 00:28:13;;;;;;;344.77;175.93;;;;;;;19.10;65.12;99384.94;339829;29;870;-75
2022/05/14 00:28:23;;;;;;;346.98;178.85;;;;;;;19.12;64.91;99387.47;338359;29;838;-75
2022/05/14 00:28:34;;;;;;;346.97;179.87;;;;;;;19.08;64.94;99378.94;335768;29;1232;-75
2022/05/14 00:28:45;;;;;;;342.92;176.10;;;;;;;19.08;65.05;99378.94;337000;29;835;-75
2022/05/14 00:28:56;;;;;;;346.70;178.45;;;;;;;19.10;64.89;99384.09;338222;29;843;-75
2022/05/14 00:29:07;;;;;;;347.67;178.77;;;;;;;19.11;64.93;99384.00;340685;29;1335;-75
2022/05/14 00:29:17;;;;;;;348.25;179.90;;;;;;;19.08;64.81;99380.72;336984;29;1260;-75
2022/05/14 00:29:29;;;;;;;346.53;176.63;;;;;;;19.11;64.80;99385.78;335551;29;5513;-75
2022/05/14 00:29:39;;;;;;;347.25;178.35;;;;;;;19.09;64.82;99385.06;337689;29;4009;-75
2022/05/14 00:29:50;;;;;;;348.30;178.30;;;;;;;19.10;64.98;99379.66;338245;29;869;-75
2022/05/14 00:30:00;;;;;;;346.80;175.88;;;;;;;19.11;64.72;99391.09;339343;29;2796;-75
2022/05/14 00:30:12;;;;;;;346.73;173.75;;;;;;;19.15;64.60;99384.59;338771;29;1348;-75
2022/05/14 00:30:25;;;;;;;343.45;173.32;;;;;;;19.14;64.58;99385.56;336948;29;1309;-74
2022/05/14 00:30:36;;;;;;;344.33;175.02;;;;;;;19.13;64.64;99382.06;337052;29;795;-75
2022/05/14 00:30:46;;;;;;;342.20;174.55;;;;;;;19.11;64.65;99383.16;335782;29;823;-75
2022/05/14 00:30:57;;;;;;;343.63;175.05;;;;;;;19.13;64.69;99378.56;338951;29;1856;-74
2022/05/14 00:31:07;;;;;;;345.20;176.87;;;;;;;19.09;64.99;99383.25;340590;29;1569;-74
2022/05/14 00:31:18;;;;;;;349.73;179.93;;;;;;;19.11;64.60;99383.16;338143;29;1304;-75
2022/05/14 00:31:29;;;;;;;347.80;175.63;;;;;;;19.10;64.49;99381.47;341897;28;1486;-75
2022/05/14 00:31:40;;;;;;;345.27;172.85;;;;;;;19.09;64.72;99379.78;338390;29;902;-75
2022/05/14 00:31:51;;;;;;;341.07;169.13;;;;;;;19.11;64.57;99377.84;339662;29;1190;-80
2022/05/14 00:32:02;;;;;;;337.73;164.70;;;;;;;19.10;64.53;99381.47;336432;29;1505;-75
2022/05/14 00:32:12;;;;;;;337.27;165.07;;;;;;;19.09;64.66;99382.41;336991;29;1742;-75
2022/05/14 00:32:24;;;;;;;340.77;170.27;;;;;;;19.10;64.73;99384.09;335670;29;930;-75
2022/05/14 00:32:37;;;;;;;342.70;170.90;;;;;;;19.09;64.63;99372.66;339758;29;884;-75
2022/05/14 00:32:48;;;;;;;341.10;167.93;;;;;;;19.07;64.61;99377.22;337477;29;1629;-75
2022/05/14 00:32:58;;;;;;;343.10;173.10;;;;;;;19.10;64.75;99378.81;339145;29;976;-75
2022/05/14 00:33:09;;;;;;;344.20;174.00;;;;;;;19.08;64.63;99383.38;339159;29;810;-78
2022/05/14 00:33:19;;;;;;;344.03;174.57;;;;;;;19.05;64.28;99381.84;337020;29;922;-76
2022/05/14 00:33:29;;;;;;;344.57;173.33;;;;;;;19.03;64.62;99388.25;339668;29;1091;-76
2022/05/14 00:33:40;;;;;;;345.47;176.43;;;;;;;19.00;64.86;99380.53;337068;29;728;-76
2022/05/14 00:33:50;;;;;;;345.13;172.75;;;;;;;19.01;64.71;99379.56;339641;29;2036;-76
2022/05/14 00:34:01;;;;;;;345.13;171.30;;;;;;;19.00;64.74;99375.22;338390;29;1471;-76
2022/05/14 00:34:11;;;;;;;345.08;168.32;;;;;;;19.02;64.71;99384.75;340443;29;2070;-75
2022/05/14 00:34:21;;;;;;;345.00;172.07;;;;;;;19.02;64.72;99374.13;338213;29;1407;-76
2022/05/14 00:34:32;;;;;;;344.33;171.77;;;;;;;19.02;64.79;99386.56;338222;29;1223;-76
2022/05/14 00:34:43;;;;;;;344.23;173.10;;;;;;;19.04;64.88;99377.50;337113;29;866;-77
2022/05/14 00:34:54;;;;;;;343.33;171.43;;;;;;;19.04;64.69;99374.84;337019;29;850;-75
2022/05/14 00:35:05;;;;;;;341.80;169.00;;;;;;;19.07;64.60;99384.34;337684;29;1714;-75
2022/05/14 00:35:15;;;;;;;340.92;168.77;;;;;;;19.06;64.62;99374.75;337891;29;1579;-75
2022/05/14 00:35:26;;;;;;;341.23;167.70;;;;;;;19.07;64.76;99379.03;335861;29;886;-75
2022/05/14 00:35:37;;;;;;;341.63;169.40;;;;;;;19.08;64.53;99386.88;335727;29;862;-75
2022/05/14 00:35:47;;;;;;;340.20;169.27;;;;;;;19.08;64.81;99378.09;338163;29;1646;-75
2022/05/14 00:35:58;;;;;;;341.35;169.60;;;;;;;19.10;64.19;99384.94;342203;28;1633;-75
2022/05/14 00:36:08;;;;;;;343.03;170.20;;;;;;;19.07;64.53;99373.75;335638;29;1329;-75
2022/05/14 00:36:18;;;;;;;344.65;170.02;;;;;;;19.09;64.43;99382.41;339555;29;1429;-75
2022/05/14 00:36:29;;;;;;;345.70;170.40;;;;;;;19.06;64.50;99378.19;338237;29;1305;-75
2022/05/14 00:36:39;;;;;;;346.10;169.93;;;;;;;19.04;64.57;99374.00;339597;29;1493;-75
2022/05/14 00:36:50;;;;;;;345.35;170.30;;;;;;;19.04;64.49;99379.31;336913;29;1226;-75
2022/05/14 00:37:00;;;;;;;344.07;170.90;;;;;;;19.06;64.20;99378.19;336967;29;1687;-75
2022/05/14 00:37:10;;;;;;;345.20;171.40;;;;;;;19.05;64.38;99386.31;336992;29;877;-75
2022/05/14 00:37:21;;;;;;;348.63;174.27;;;;;;;19.02;64.44;99382.09;336967;29;1914;-76
2022/05/14 00:37:31;;;;;;;348.55;174.15;;;;;;;19.04;64.47;99374.00;339480;29;1633;-75
2022/05/14 00:37:42;;;;;;;345.57;172.90;;;;;;;19.06;64.30;99388.00;337240;29;1807;-76
2022/05/14 00:37:52;;;;;;;342.73;171.40;;;;;;;19.07;64.37;99373.75;338894;29;1614;-76
2022/05/14 00:38:03;;;;;;;343.33;173.37;;;;;;;19.07;64.23;99377.22;335881;29;1178;-76
2022/05/14 00:38:14;;;;;;;345.48;176.30;;;;;;;19.08;64.46;99375.44;337348;29;1316;-76
2022/05/14 00:38:24;;;;;;;346.40;174.32;;;;;;;19.09;64.13;99377.13;338370;29;889;-76
2022/05/14 00:38:35;;;;;;;344.63;171.50;;;;;;;19.11;63.91;99375.19;337266;29;4196;-76
2022/05/14 00:38:45;;;;;;;345.20;173.18;;;;;;;19.11;64.08;99377.84;336316;29;3822;-75
2022/05/14 00:38:56;;;;;;;347.20;176.23;;;;;;;19.10;64.36;99374.34;337941;29;3200;-75
2022/05/14 00:39:06;;;;;;;351.85;180.65;;;;;;;19.09;64.30;99377.97;338975;29;2011;-75
2022/05/14 00:39:16;;;;;;;352.90;178.63;;;;;;;19.12;64.04;99376.88;338153;29;3534;-75
2022/05/14 00:39:27;;;;;;;349.25;174.27;;;;;;;19.12;63.78;99382.19;338280;29;828;-76
2022/05/14 00:39:37;;;;;;;347.00;168.87;;;;;;;19.12;63.88;99376.88;337021;29;1319;-76
2022/05/14 00:39:47;;;;;;;346.83;168.83;;;;;;;19.10;63.96;99378.81;336982;29;1162;-75
2022/05/14 00:39:59;;;;;;;345.52;168.93;;;;;;;19.09;63.96;99380.63;338230;29;1274;-75
2022/05/14 00:40:14;;;;;;;342.60;170.38;;;;;;;19.09;64.03;99379.78;335770;29;879;-75
2022/05/14 00:40:30;;;;;;;343.42;170.98;;;;;;;19.07;64.28;99379.03;336182;29;1077;-75
2022/05/14 00:40:46;;;;;;;346.10;172.27;;;;;;;19.07;64.07;99379.03;338451;29;1752;-75
2022/05/14 00:41:01;;;;;;;342.10;169.65;;;;;;;19.08;64.08;99375.44;335935;29;1790;-75
2022/05/14 00:41:12;;;;;;;340.40;169.63;;;;;;;19.08;64.45;99380.72;338020;29;1597;-75
2022/05/14 00:41:24;;;;;;;342.33;170.70;;;;;;;19.11;64.23;99385.78;339631;29;799;-75
2022/05/14 00:41:36;;;;;;;345.92;174.25;;;;;;;19.12;64.11;99377.72;340978;29;949;-75
2022/05/14 00:41:48;;;;;;;344.63;174.60;;;;;;;19.12;64.10;99371.56;337007;29;1348;-76
2022/05/14 00:41:58;;;;;;;341.63;172.88;;;;;;;19.15;64.18;99381.94;337353;29;1739;-76
2022/05/14 00:42:09;;;;;;;341.40;172.27;;;;;;;19.15;64.36;99379.28;338563;29;1494;-75
2022/05/14 00:42:19;;;;;;;343.58;174.27;;;;;;;19.13;63.83;99378.56;339497;29;886;-75
2022/05/14 00:42:31;;;;;;;342.77;173.00;;;;;;;19.13;63.65;99379.41;340165;29;919;-75
2022/05/14 00:42:42;;;;;;;342.67;170.05;;;;;;;19.12;63.70;99384.84;339562;28;1704;-75
2022/05/14 00:42:53;;;;;;;341.90;170.00;;;;;;;19.09;63.74;99377.97;340044;29;1062;-75
2022/05/14 00:43:04;;;;;;;343.17;171.18;;;;;;;19.08;63.53;99380.72;341014;29;858;-75
2022/05/14 00:43:16;;;;;;;343.08;171.73;;;;;;;19.06;63.72;99378.19;337226;29;1321;-75
2022/05/14 00:43:27;;;;;;;343.23;171.55;;;;;;;19.07;63.97;99379.88;337023;29;907;-75
2022/05/14 00:43:52;;;;;;;344.30;172.60;;;;;;;19.09;63.83;99374.47;339575;29;1179;-75
2022/05/14 00:44:02;;;;;;;344.05;170.32;;;;;;;19.08;63.89;99370.13;339259;29;1809;-77
2022/05/14 00:44:13;;;;;;;344.08;174.38;;;;;;;19.08;63.82;99380.72;338418;29;1780;-76
2022/05/14 00:44:24;;;;;;;342.70;175.67;;;;;;;19.10;63.84;99377.00;335700;29;863;-76
2022/05/14 00:44:34;;;;;;;340.20;173.02;;;;;;;19.11;63.78;99380.50;339620;29;1218;-76
2022/05/14 00:44:44;;;;;;;338.57;170.50;;;;;;;19.14;63.74;99382.91;338371;29;878;-75
2022/05/14 00:44:55;;;;;;;337.13;167.98;;;;;;;19.15;63.87;99376.63;339510;29;1213;-77
2022/05/14 00:45:07;;;;;;;337.47;168.33;;;;;;;19.15;63.64;99373.97;338306;29;1256;-76
2022/05/14 00:45:19;;;;;;;339.50;169.50;;;;;;;19.17;63.70;99380.00;337922;29;1121;-78
2022/05/14 00:45:30;;;;;;;342.13;170.45;;;;;;;19.18;63.90;99371.91;336236;29;1626;-75
2022/05/14 00:45:59;;;;;;;342.83;167.45;;;;;;;19.21;63.75;99381.44;339564;29;1569;-76
2022/05/14 00:46:27;;;;;;;337.45;163.75;;;;;;;19.18;63.59;99376.38;336968;29;1422;-76
2022/05/14 00:46:45;;;;;;;342.55;168.88;;;;;;;19.18;63.59;99385.19;338073;29;1807;-76
2022/05/14 00:46:59;;;;;;;342.48;169.07;;;;;;;19.14;63.82;99385.56;337433;29;1058;-75
2022/05/14 00:47:12;;;;;;;340.92;169.40;;;;;;;19.12;63.63;99376.88;339429;29;1691;-77
2022/05/14 00:47:22;;;;;;;343.92;169.82;;;;;;;19.11;63.73;99380.50;337053;29;1456;-75
2022/05/14 00:47:36;;;;;;;346.70;169.83;;;;;;;19.09;63.83;99377.97;337133;29;1582;-75
2022/05/14 00:47:49;;;;;;;351.58;175.75;;;;;;;19.08;63.74;99376.28;337597;29;5213;-74
2022/05/14 00:48:00;;;;;;;349.55;173.60;;;;;;;19.08;64.01;99375.44;336677;29;3906;-75
2022/05/14 00:48:10;;;;;;;347.70;173.18;;;;;;;19.07;63.87;99374.59;341115;29;751;-75
2022/05/14 00:48:22;;;;;;;348.50;175.13;;;;;;;19.08;63.83;99380.72;336924;29;1852;-75
2022/05/14 00:48:36;;;;;;;349.38;176.45;;;;;;;19.09;63.94;99382.41;339480;29;3312;-75
2022/05/14 00:48:47;;;;;;;346.85;174.52;;;;;;;19.07;63.81;99374.59;337331;29;1265;-75
2022/05/14 00:48:57;;;;;;;347.23;174.07;;;;;;;19.10;63.98;99381.47;335884;29;1060;-78
2022/05/14 00:49:08;;;;;;;343.92;172.45;;;;;;;19.06;64.08;99383.50;339677;29;1392;-76
2022/05/14 00:49:20;;;;;;;339.90;168.73;;;;;;;19.06;63.91;99383.50;336957;29;1305;-76
2022/05/14 00:49:31;;;;;;;337.05;168.50;;;;;;;19.09;64.06;99377.13;335704;29;1411;-76
2022/05/14 00:49:42;;;;;;;339.67;171.02;;;;;;;19.10;63.84;99374.34;338326;29;918;-76
2022/05/14 00:49:53;;;;;;;343.97;175.03;;;;;;;19.12;63.86;99379.53;338272;29;921;-76
2022/05/14 00:50:07;;;;;;;348.25;176.25;;;;;;;19.13;63.72;99378.56;340966;29;838;-76
2022/05/14 00:50:20;;;;;;;348.15;172.98;;;;;;;19.13;63.89;99378.56;337565;29;1715;-75
2022/05/14 00:50:46;;;;;;;345.75;171.57;;;;;;;19.12;63.80;99382.19;337032;29;850;-76
2022/05/14 00:50:57;;;;;;;342.13;171.10;;;;;;;19.12;63.94;99376.88;338189;29;1673;-76
2022/05/14 00:51:08;;;;;;;342.35;173.23;;;;;;;19.13;63.71;99378.56;340735;29;1929;-80
2022/05/14 00:51:26;;;;;;;341.98;172.02;;;;;;;19.13;63.90;99383.88;337766;29;1220;-76
2022/05/14 00:51:37;;;;;;;341.60;171.15;;;;;;;19.11;63.87;99385.78;340909;29;956;-76
2022/05/14 00:51:47;;;;;;;341.92;172.02;;;;;;;19.11;64.13;99380.50;336954;29;1325;-77
2022/05/14 00:51:58;;;;;;;341.37;171.73;;;;;;;19.13;63.78;99379.41;334596;29;858;-76
2022/05/14 00:52:13;;;;;;;341.08;171.73;;;;;;;19.14;63.70;99385.56;342138;28;1548;-76
2022/05/14 00:52:23;;;;;;;339.38;170.18;;;;;;;19.10;63.60;99378.81;339071;29;1486;-76
2022/05/14 00:52:33;;;;;;;340.60;172.63;;;;;;;19.12;63.66;99382.19;339493;29;1853;-75
2022/05/14 00:52:44;;;;;;;340.50;173.03;;;;;;;19.12;63.84;99377.72;334293;29;1517;-75
2022/05/14 00:52:58;;;;;;;342.50;176.55;;;;;;;19.10;63.88;99378.81;336531;29;1038;-76
2022/05/14 00:53:12;;;;;;;343.08;170.93;;;;;;;19.11;63.78;99380.50;337020;29;922;-75
2022/05/14 00:53:44;;;;;;;342.85;168.75;;;;;;;19.08;63.80;99381.56;336928;29;1367;-75
2022/05/14 00:54:04;;;;;;;345.73;172.52;;;;;;;19.08;63.95;99378.94;335672;29;903;-77
2022/05/14 00:54:19;;;;;;;345.25;172.93;;;;;;;19.03;63.92;99378.47;335783;29;1630;-77
2022/05/14 00:54:45;;;;;;;347.27;177.48;;;;;;;19.03;63.86;99381.13;338785;29;1156;-76
2022/05/14 00:55:01;;;;;;;341.02;171.65;;;;;;;19.03;63.83;99381.13;339623;28;1004;-76
2022/05/14 00:55:12;;;;;;;342.02;173.05;;;;;;;19.03;63.90;99380.28;340484;29;1499;-76
2022/05/14 00:55:22;;;;;;;342.63;169.50;;;;;;;19.02;63.89;99386.56;334411;29;1328;-77